createdAt,value
2018-11-03T00:01:34.356Z,11.93
2018-11-03T00:04:03.345Z,10.67
2018-11-03T00:06:32.097Z,19.60
2018-11-03T00:09:00.915Z,12.50
2018-11-03T00:11:29.757Z,13.43
2018-11-03T00:13:58.560Z,12.97
2018-11-03T00:16:27.331Z,10.73
2018-11-03T00:18:56.138Z,25.80
2018-11-03T00:21:24.907Z,11.60
2018-11-03T00:23:53.800Z,9.73
2018-11-03T00:26:22.592Z,12.00
2018-11-03T00:28:51.373Z,8.57
2018-11-03T00:31:20.205Z,10.83
2018-11-03T00:33:48.997Z,25.23
2018-11-03T00:36:17.773Z,11.63
2018-11-03T00:38:46.592Z,9.83
2018-11-03T00:41:15.388Z,10.70
2018-11-03T00:43:44.221Z,12.30
2018-11-03T00:46:12.996Z,14.83
2018-11-03T00:48:41.788Z,12.90
2018-11-03T00:51:10.615Z,12.23
2018-11-03T00:53:39.400Z,14.87
2018-11-03T00:56:08.395Z,10.23
2018-11-03T00:58:37.137Z,11.77
2018-11-03T01:01:05.943Z,12.50
2018-11-03T01:03:34.799Z,12.47
2018-11-03T01:06:03.653Z,27.27
2018-11-03T01:08:32.384Z,21.00
2018-11-03T01:11:01.180Z,14.27
2018-11-03T01:13:30.194Z,27.93
2018-11-03T01:15:58.964Z,17.70
2018-11-03T01:18:27.717Z,20.73
2018-11-03T01:20:56.439Z,15.60
2018-11-03T01:23:25.204Z,10.63
2018-11-03T01:25:54.048Z,10.40
2018-11-03T01:28:22.839Z,13.93
2018-11-03T01:30:51.548Z,9.90
2018-11-03T01:33:20.342Z,9.73
2018-11-03T01:35:49.203Z,11.33
2018-11-03T01:38:18.026Z,14.10
2018-11-03T01:40:46.758Z,17.10
2018-11-03T01:43:15.529Z,31.53
2018-11-03T01:45:44.305Z,15.40
2018-11-03T01:48:13.143Z,13.23
2018-11-03T01:50:41.965Z,9.80
2018-11-03T01:53:10.796Z,13.80
2018-11-03T01:55:39.593Z,13.80
2018-11-03T01:58:14.700Z,11.13
2018-11-03T02:00:43.427Z,11.23
2018-11-03T02:03:12.208Z,11.80
2018-11-03T02:05:41.029Z,11.10
2018-11-03T02:08:09.956Z,14.07
2018-11-03T02:10:38.735Z,14.20
2018-11-03T02:13:07.505Z,13.83
2018-11-03T02:15:36.215Z,8.97
2018-11-03T02:18:05.010Z,13.43
2018-11-03T02:20:33.788Z,10.97
2018-11-03T02:23:02.516Z,13.57
2018-11-03T02:25:31.230Z,10.60
2018-11-03T02:27:59.997Z,10.40
2018-11-03T02:30:28.775Z,12.27
2018-11-03T02:32:57.624Z,13.63
2018-11-03T02:35:26.412Z,14.57
2018-11-03T02:37:55.363Z,11.93
2018-11-03T02:40:24.238Z,15.73
2018-11-03T02:42:53.008Z,9.83
2018-11-03T02:45:21.829Z,11.53
2018-11-03T02:47:50.575Z,15.17
2018-11-03T02:50:19.329Z,13.47
2018-11-03T02:52:48.283Z,15.10
2018-11-03T02:55:17.050Z,15.43
2018-11-03T02:57:45.820Z,11.47
2018-11-03T03:00:14.578Z,15.43
2018-11-03T03:02:43.473Z,18.80
2018-11-03T03:05:12.539Z,12.83
2018-11-03T03:07:41.732Z,12.00
2018-11-03T03:10:11.994Z,13.53
2018-11-03T03:12:40.727Z,18.13
2018-11-03T03:15:11.415Z,11.37
2018-11-03T03:17:41.553Z,15.80
2018-11-03T03:20:11.875Z,13.40
2018-11-03T03:22:40.795Z,11.50
2018-11-03T03:25:11.148Z,11.93
2018-11-03T03:27:40.012Z,18.87
2018-11-03T03:30:09.469Z,13.57
2018-11-03T03:32:38.399Z,12.03
2018-11-03T03:35:07.318Z,11.43
2018-11-03T03:37:36.116Z,14.50
2018-11-03T03:40:05.804Z,16.00
2018-11-03T03:45:12.617Z,18.03
2018-11-03T03:47:41.419Z,14.03
2018-11-03T03:50:11.027Z,18.03
2018-11-03T03:52:39.941Z,16.27
2018-11-03T03:55:09.615Z,18.50
2018-11-03T03:57:38.376Z,21.67
2018-11-03T04:00:08.629Z,18.83
2018-11-03T04:02:37.513Z,18.73
2018-11-03T04:05:06.345Z,15.63
2018-11-03T04:07:35.155Z,21.37
2018-11-03T04:10:03.926Z,16.97
2018-11-03T04:12:32.777Z,25.53
2018-11-03T04:15:01.812Z,18.23
2018-11-03T04:17:30.618Z,21.07
2018-11-03T04:20:06.845Z,21.20
2018-11-03T04:22:35.637Z,21.17
2018-11-03T04:25:04.716Z,18.87
2018-11-03T04:27:33.578Z,19.60
2018-11-03T04:30:02.237Z,17.47
2018-11-03T04:32:30.987Z,21.00
2018-11-03T04:34:59.760Z,16.87
2018-11-03T04:37:28.521Z,18.93
2018-11-03T04:39:57.273Z,17.27
2018-11-03T04:42:25.969Z,21.07
2018-11-03T04:44:54.770Z,19.77
2018-11-03T04:47:23.500Z,20.87
2018-11-03T04:49:52.273Z,23.03
2018-11-03T04:52:21.061Z,20.93
2018-11-03T04:54:49.832Z,17.80
2018-11-03T04:57:18.816Z,18.80
2018-11-03T04:59:47.686Z,19.07
2018-11-03T05:02:16.385Z,22.10
2018-11-03T05:04:45.280Z,22.57
2018-11-03T05:07:14.065Z,20.00
2018-11-03T05:09:42.872Z,21.43
2018-11-03T05:12:11.647Z,20.50
2018-11-03T05:14:40.351Z,21.83
2018-11-03T05:17:09.153Z,23.80
2018-11-03T05:19:37.953Z,23.93
2018-11-03T05:22:06.778Z,27.63
2018-11-03T05:24:35.586Z,25.67
2018-11-03T05:27:04.429Z,20.87
2018-11-03T05:29:33.608Z,24.93
2018-11-03T05:32:02.357Z,38.27
2018-11-03T05:34:31.113Z,22.67
2018-11-03T05:37:00.820Z,19.60
2018-11-03T05:39:29.673Z,21.60
2018-11-03T05:41:58.524Z,24.87
2018-11-03T05:44:27.419Z,23.63
2018-11-03T05:46:56.140Z,24.47
2018-11-03T05:49:24.849Z,26.57
2018-11-03T05:51:53.662Z,23.37
2018-11-03T05:54:22.412Z,23.37
2018-11-03T05:56:51.290Z,29.83
2018-11-03T05:59:20.145Z,25.37
2018-11-03T06:01:48.889Z,26.60
2018-11-03T06:04:17.646Z,26.67
2018-11-03T06:06:46.636Z,26.27
2018-11-03T06:09:15.553Z,23.77
2018-11-03T06:11:44.290Z,29.53
2018-11-03T06:14:13.025Z,22.97
2018-11-03T06:16:41.791Z,26.47
2018-11-03T06:19:10.631Z,24.60
2018-11-03T06:21:39.503Z,27.17
2018-11-03T06:24:08.245Z,24.70
2018-11-03T06:26:36.974Z,27.97
2018-11-03T06:29:05.734Z,28.03
2018-11-03T06:31:34.589Z,27.73
2018-11-03T06:34:03.406Z,25.53
2018-11-03T06:36:32.171Z,26.70
2018-11-03T06:39:00.944Z,26.93
2018-11-03T06:41:29.754Z,28.20
2018-11-03T06:43:58.485Z,25.13
2018-11-03T06:46:27.379Z,23.17
2018-11-03T06:49:00.449Z,20.97
2018-11-03T06:51:29.290Z,20.97
2018-11-03T06:53:58.110Z,19.97
2018-11-03T06:56:26.845Z,21.27
2018-11-03T06:58:55.587Z,22.63
2018-11-03T07:01:24.447Z,22.80
2018-11-03T07:03:53.322Z,20.93
2018-11-03T07:06:22.413Z,19.33
2018-11-03T07:08:51.173Z,19.43
2018-11-03T07:11:20.017Z,31.33
2018-11-03T07:13:48.750Z,19.93
2018-11-03T07:16:17.476Z,21.80
2018-11-03T07:18:46.191Z,21.27
2018-11-03T07:21:14.912Z,28.13
2018-11-03T07:23:43.672Z,44.43
2018-11-03T07:26:12.403Z,28.17
2018-11-03T07:28:43.049Z,23.43
2018-11-03T07:31:15.724Z,18.57
2018-11-03T07:33:44.508Z,16.97
2018-11-03T07:36:13.259Z,17.40
2018-11-03T07:38:41.964Z,20.13
2018-11-03T07:41:10.736Z,17.73
2018-11-03T07:43:39.923Z,19.67
2018-11-03T07:46:08.664Z,19.00
2018-11-03T07:48:37.673Z,19.53
2018-11-03T07:51:08.628Z,19.00
2018-11-03T07:53:40.972Z,20.00
2018-11-03T07:56:09.820Z,18.73
2018-11-03T07:58:38.608Z,21.20
2018-11-03T08:01:07.402Z,18.77
2018-11-03T08:03:36.572Z,20.50
2018-11-03T08:06:05.614Z,20.30
2018-11-03T08:08:35.010Z,22.40
2018-11-03T08:11:03.828Z,21.60
2018-11-03T08:13:32.639Z,19.20
2018-11-03T08:16:01.629Z,20.43
2018-11-03T08:18:30.935Z,21.13
2018-11-03T08:21:04.333Z,23.83
2018-11-03T08:23:34.216Z,20.53
2018-11-03T08:26:02.991Z,21.03
2018-11-03T08:28:35.709Z,20.47
2018-11-03T08:31:04.470Z,20.57
2018-11-03T08:33:33.247Z,19.40
2018-11-03T08:36:02.520Z,21.80
2018-11-03T08:38:31.201Z,19.50
2018-11-03T08:41:00.195Z,19.73
2018-11-03T08:43:29.053Z,19.30
2018-11-03T08:45:58.768Z,19.43
2018-11-03T08:48:27.665Z,19.23
2018-11-03T08:50:57.137Z,19.53
2018-11-03T08:56:08.870Z,24.50
2018-11-03T08:58:37.749Z,23.83
2018-11-03T09:01:07.803Z,21.27
2018-11-03T09:03:39.920Z,20.50
2018-11-03T09:06:17.811Z,18.60
2018-11-03T09:08:47.752Z,19.63
2018-11-03T09:11:17.722Z,22.67
2018-11-03T09:13:48.917Z,19.37
2018-11-03T09:16:22.373Z,19.73
2018-11-03T09:18:51.552Z,19.27
2018-11-03T09:21:20.604Z,21.43
2018-11-03T09:23:52.682Z,20.93
2018-11-03T09:26:27.701Z,18.90
2018-11-03T09:28:58.990Z,19.57
2018-11-03T09:31:31.534Z,18.57
2018-11-03T09:34:02.707Z,21.33
2018-11-03T09:36:35.385Z,22.57
2018-11-03T09:39:05.024Z,18.93
2018-11-03T09:41:33.608Z,17.53
2018-11-03T09:44:02.346Z,17.87
2018-11-03T09:46:31.750Z,19.47
2018-11-03T09:49:00.624Z,18.90
2018-11-03T09:51:29.489Z,23.50
2018-11-03T09:53:58.310Z,22.97
2018-11-03T09:59:01.169Z,17.90
2018-11-03T10:01:30.448Z,21.67
2018-11-03T10:04:06.549Z,19.40
2018-11-03T10:09:21.005Z,19.90
2018-11-03T10:11:49.752Z,18.97
2018-11-03T10:14:18.521Z,29.07
2018-11-03T10:16:47.259Z,21.70
2018-11-03T10:19:16.547Z,26.07
2018-11-03T10:21:45.265Z,21.30
2018-11-03T10:24:14.019Z,23.07
2018-11-03T10:26:42.736Z,16.70
2018-11-03T10:29:11.473Z,20.73
2018-11-03T10:31:40.217Z,22.03
2018-11-03T10:34:09.184Z,22.63
2018-11-03T10:36:37.931Z,22.47
2018-11-03T10:39:09.117Z,24.17
2018-11-03T10:41:37.887Z,21.57
2018-11-03T10:44:06.720Z,15.23
2018-11-03T10:46:35.694Z,20.37
2018-11-03T10:49:04.296Z,16.10
2018-11-03T10:51:33.216Z,16.20
2018-11-03T10:54:02.404Z,16.00
2018-11-03T10:56:31.181Z,17.73
2018-11-03T10:58:59.939Z,18.00
2018-11-03T11:01:34.954Z,14.97
2018-11-03T11:06:16.188Z,16.60
2018-11-03T11:08:50.383Z,13.67
2018-11-03T11:11:24.550Z,20.17
2018-11-03T11:13:53.328Z,19.70
2018-11-03T11:16:22.167Z,18.40
2018-11-03T11:18:50.944Z,23.00
2018-11-03T11:21:19.675Z,27.30
2018-11-03T11:23:48.393Z,16.67
2018-11-03T11:26:17.089Z,14.77
2018-11-03T11:28:45.817Z,11.23
2018-11-03T11:31:14.734Z,11.03
2018-11-03T11:33:43.649Z,12.00
2018-11-03T11:36:12.642Z,12.13
2018-11-03T11:38:41.419Z,12.03
2018-11-03T11:41:10.541Z,11.43
2018-11-03T11:43:39.386Z,11.30
2018-11-03T11:46:08.397Z,12.33
2018-11-03T11:48:37.357Z,12.90
2018-11-03T11:51:06.144Z,10.13
2018-11-03T11:53:34.925Z,10.70
2018-11-03T11:56:03.684Z,12.83
2018-11-03T11:58:32.437Z,10.90
2018-11-03T12:01:01.370Z,11.83
2018-11-03T12:03:30.330Z,10.87
2018-11-03T12:05:59.128Z,9.27
2018-11-03T12:08:27.954Z,9.90
2018-11-03T12:10:56.755Z,8.70
2018-11-03T12:13:25.541Z,10.73
2018-11-03T12:15:54.269Z,7.47
2018-11-03T12:18:23.122Z,10.30
2018-11-03T12:21:02.933Z,9.33
2018-11-03T12:23:34.513Z,9.03
2018-11-03T12:26:04.073Z,9.63
2018-11-03T12:28:32.993Z,8.97
2018-11-03T12:31:03.915Z,10.17
2018-11-03T12:33:35.075Z,20.60
2018-11-03T12:36:04.802Z,12.23
2018-11-03T12:38:36.211Z,16.00
2018-11-03T12:41:11.592Z,17.67
2018-11-03T12:43:40.340Z,9.63
2018-11-03T12:46:09.099Z,10.00
2018-11-03T12:48:37.813Z,9.67
2018-11-03T12:51:08.266Z,9.87
2018-11-03T12:53:37.040Z,10.57
2018-11-03T12:56:05.815Z,7.00
2018-11-03T12:58:39.629Z,5.83
2018-11-03T13:01:09.422Z,8.00
2018-11-03T13:03:38.232Z,8.63
2018-11-03T13:06:08.189Z,8.93
2018-11-03T13:08:38.984Z,5.33
2018-11-03T13:11:08.914Z,7.83
2018-11-03T13:13:38.852Z,5.93
2018-11-03T13:16:07.889Z,4.10
2018-11-03T13:18:36.637Z,11.07
2018-11-03T13:21:12.356Z,5.57
2018-11-03T13:23:41.777Z,7.10
2018-11-03T13:26:10.692Z,8.80
2018-11-03T13:28:39.395Z,7.50
2018-11-03T13:31:08.220Z,9.50
2018-11-03T13:33:36.943Z,34.73
2018-11-03T13:36:05.910Z,36.83
2018-11-03T13:38:34.628Z,20.67
2018-11-03T13:41:03.422Z,16.40
2018-11-03T13:43:32.101Z,6.33
2018-11-03T13:46:00.858Z,10.53
2018-11-03T13:48:29.617Z,7.13
2018-11-03T13:50:58.388Z,7.50
2018-11-03T13:53:27.163Z,8.00
2018-11-03T13:55:56.052Z,11.40
2018-11-03T13:58:24.803Z,5.37
2018-11-03T14:00:53.656Z,10.53
2018-11-03T14:03:22.335Z,6.40
2018-11-03T14:05:51.084Z,6.67
2018-11-03T14:08:21.314Z,6.30
2018-11-03T14:11:00.444Z,11.33
2018-11-03T14:13:42.225Z,8.30
2018-11-03T14:16:11.309Z,19.30
2018-11-03T14:18:40.088Z,12.50
2018-11-03T14:21:08.952Z,12.33
2018-11-03T14:23:37.804Z,35.67
2018-11-03T14:26:06.516Z,8.20
2018-11-03T14:28:35.267Z,6.33
2018-11-03T14:31:04.053Z,14.83
2018-11-03T14:33:39.254Z,9.40
2018-11-03T14:36:08.392Z,7.83
2018-11-03T14:38:37.117Z,10.53
2018-11-03T14:41:05.869Z,6.97
2018-11-03T14:43:34.657Z,6.67
2018-11-03T14:46:03.433Z,7.70
2018-11-03T14:48:32.140Z,8.07
2018-11-03T14:51:00.985Z,10.00
2018-11-03T14:53:29.684Z,7.97
2018-11-03T14:55:58.556Z,4.00
2018-11-03T14:58:32.710Z,15.27
2018-11-03T15:03:41.316Z,24.60
2018-11-03T15:06:11.613Z,10.23
2018-11-03T15:08:40.410Z,11.20
2018-11-03T15:11:09.052Z,7.90
2018-11-03T15:13:37.882Z,7.40
2018-11-03T15:16:06.647Z,6.83
2018-11-03T15:18:35.480Z,12.37
2018-11-03T15:21:04.605Z,12.60
2018-11-03T15:23:34.603Z,9.93
2018-11-03T15:26:06.354Z,9.00
2018-11-03T15:28:35.286Z,11.40
2018-11-03T15:31:04.445Z,8.50
2018-11-03T15:33:33.495Z,10.80
2018-11-03T15:36:02.249Z,6.77
2018-11-03T15:38:30.980Z,8.80
2018-11-03T15:40:59.716Z,9.93
2018-11-03T15:43:28.480Z,11.23
2018-11-03T15:45:57.207Z,11.67
2018-11-03T15:48:26.610Z,8.83
2018-11-03T15:50:58.237Z,7.63
2018-11-03T15:53:27.424Z,17.13
2018-11-03T15:55:57.114Z,25.70
2018-11-03T15:58:27.669Z,25.37
2018-11-03T16:00:57.648Z,20.33
2018-11-03T16:03:28.117Z,14.53
2018-11-03T16:05:57.508Z,13.57
2018-11-03T16:08:26.824Z,13.60
2018-11-03T16:10:55.668Z,13.23
2018-11-03T16:13:24.990Z,15.37
2018-11-03T16:15:53.828Z,35.57
2018-11-03T16:18:24.408Z,21.30
2018-11-03T16:20:53.155Z,16.30
2018-11-03T16:23:22.149Z,15.50
2018-11-03T16:25:50.922Z,16.20
2018-11-03T16:28:19.723Z,17.07
2018-11-03T16:30:51.425Z,14.87
2018-11-03T16:33:26.451Z,15.83
2018-11-03T16:35:55.626Z,20.70
2018-11-03T16:38:24.535Z,27.40
2018-11-03T16:40:53.744Z,59.10
2018-11-03T16:43:23.775Z,58.63
2018-11-03T16:45:54.915Z,82.90
2018-11-03T16:48:31.034Z,102.07
2018-11-03T16:51:00.097Z,104.20
2018-11-03T16:53:29.332Z,106.53
2018-11-03T16:56:02.630Z,89.87
2018-11-03T16:58:32.171Z,85.07
2018-11-03T17:01:16.766Z,75.07
2018-11-03T17:03:51.686Z,66.83
2018-11-03T17:09:06.975Z,56.10
2018-11-03T17:11:37.215Z,44.60
2018-11-03T17:14:06.257Z,36.03
2018-11-03T17:16:35.330Z,36.63
2018-11-03T17:19:04.376Z,35.67
2018-11-03T17:21:33.292Z,32.40
2018-11-03T17:24:07.890Z,28.67
2018-11-03T17:26:37.512Z,33.00
2018-11-03T17:29:06.508Z,27.90
2018-11-03T17:31:35.687Z,18.50
2018-11-03T17:34:05.525Z,21.30
2018-11-03T17:36:34.483Z,14.43
2018-11-03T17:39:04.842Z,12.40
2018-11-03T17:41:35.577Z,17.30
2018-11-03T17:44:06.876Z,20.50
2018-11-03T17:46:36.175Z,17.20
2018-11-03T17:49:05.415Z,19.90
2018-11-03T17:51:34.949Z,27.57
2018-11-03T17:54:04.680Z,15.40
2018-11-03T17:56:41.493Z,14.13
2018-11-03T17:59:18.699Z,15.73
2018-11-03T18:01:52.073Z,10.60
2018-11-03T18:04:21.847Z,12.47
2018-11-03T18:06:50.756Z,12.87
2018-11-03T18:09:23.430Z,14.50
2018-11-03T18:11:53.038Z,11.50
2018-11-03T18:14:21.851Z,12.33
2018-11-03T18:16:54.266Z,11.27
2018-11-03T18:19:30.232Z,15.60
2018-11-03T18:22:03.027Z,14.90
2018-11-03T18:24:36.340Z,12.50
2018-11-03T18:27:08.791Z,14.40
2018-11-03T18:29:51.103Z,12.40
2018-11-03T18:32:20.107Z,13.40
2018-11-03T18:34:52.320Z,18.77
2018-11-03T18:37:21.573Z,16.90
2018-11-03T18:39:52.109Z,12.67
2018-11-03T18:42:24.212Z,17.80
2018-11-03T18:44:55.756Z,16.33
2018-11-03T18:47:24.827Z,16.97
2018-11-03T18:49:53.906Z,13.87
2018-11-03T18:52:23.927Z,14.53
2018-11-03T18:54:54.673Z,17.27
2018-11-03T18:57:24.206Z,14.13
2018-11-03T18:59:53.433Z,16.53
2018-11-03T19:02:22.975Z,13.83
2018-11-03T19:04:53.506Z,15.30
2018-11-03T19:07:25.348Z,17.33
2018-11-03T19:09:54.385Z,14.00
2018-11-03T19:12:24.109Z,22.13
2018-11-03T19:14:53.173Z,15.43
2018-11-03T19:17:24.984Z,14.63
2018-11-03T19:19:56.143Z,17.13
2018-11-03T19:25:09.548Z,20.53
2018-11-03T19:30:22.438Z,15.90
2018-11-03T19:33:00.365Z,35.60
2018-11-03T19:35:32.926Z,16.73
2018-11-03T19:38:01.822Z,14.50
2018-11-03T19:40:42.061Z,14.23
2018-11-03T19:46:01.950Z,22.10
2018-11-03T19:48:32.061Z,21.83
2018-11-03T19:51:02.426Z,16.27
2018-11-03T19:53:31.406Z,16.67
2018-11-03T19:56:05.582Z,15.00
2018-11-03T19:58:36.827Z,17.23
2018-11-03T20:01:12.840Z,26.23
2018-11-03T20:03:46.189Z,25.70
2018-11-03T20:06:19.940Z,16.90
2018-11-03T20:08:53.568Z,15.67
2018-11-03T20:11:31.796Z,24.40
2018-11-03T20:19:30.363Z,19.53
2018-11-03T20:22:01.210Z,16.83
2018-11-03T20:24:30.067Z,19.20
2018-11-03T20:27:01.909Z,18.30
2018-11-03T20:29:30.680Z,14.87
2018-11-03T20:31:59.761Z,13.87
2018-11-03T20:34:28.516Z,16.93
2018-11-03T20:36:59.811Z,14.00
2018-11-03T20:39:28.967Z,15.17
2018-11-03T20:42:09.082Z,15.80
2018-11-03T20:44:44.820Z,22.37
2018-11-03T20:47:21.496Z,17.07
2018-11-03T20:49:50.677Z,17.43
2018-11-03T20:52:19.429Z,15.10
2018-11-03T20:54:48.207Z,13.67
2018-11-03T20:57:16.951Z,11.90
2018-11-03T20:59:45.840Z,14.73
2018-11-03T21:02:15.865Z,14.87
2018-11-03T21:04:47.106Z,14.93
2018-11-03T21:07:22.194Z,13.47
2018-11-03T21:09:57.180Z,16.20
2018-11-03T21:12:38.812Z,15.60
2018-11-03T21:15:08.315Z,18.77
2018-11-03T21:17:37.037Z,16.30
2018-11-03T21:20:06.329Z,15.47
2018-11-03T21:22:35.177Z,16.53
2018-11-03T21:25:04.456Z,13.93
2018-11-03T21:27:33.778Z,12.80
2018-11-03T21:30:07.546Z,15.47
2018-11-03T21:32:42.659Z,12.80
2018-11-03T21:35:24.924Z,17.13
2018-11-03T21:38:01.782Z,13.43
2018-11-03T21:45:56.715Z,16.33
2018-11-03T21:51:14.158Z,16.57
2018-11-03T21:53:44.195Z,14.33
2018-11-03T21:56:12.970Z,17.73
2018-11-03T21:58:41.995Z,14.97
2018-11-03T22:03:44.897Z,16.33
2018-11-03T22:06:14.409Z,26.37
2018-11-03T22:11:17.345Z,14.43
2018-11-03T22:13:46.215Z,16.47
2018-11-03T22:16:14.984Z,16.37
2018-11-03T22:18:43.785Z,20.47
2018-11-03T22:21:12.623Z,16.93
2018-11-03T22:23:41.711Z,16.93
2018-11-03T22:26:10.620Z,22.53
2018-11-03T22:28:39.444Z,39.03
2018-11-03T22:31:08.184Z,17.90
2018-11-03T22:33:36.877Z,16.53
2018-11-03T22:36:05.757Z,16.80
2018-11-03T22:38:34.705Z,17.57
2018-11-03T22:41:03.479Z,17.27
2018-11-03T22:43:32.283Z,20.97
2018-11-03T22:46:01.165Z,17.97
2018-11-03T22:48:29.911Z,18.57
2018-11-03T22:50:58.692Z,17.47
2018-11-03T22:53:27.451Z,15.93
2018-11-03T22:55:56.284Z,20.43
2018-11-03T22:58:25.800Z,17.83
2018-11-03T23:00:57.013Z,19.43
2018-11-03T23:03:26.914Z,20.97
2018-11-03T23:05:55.677Z,23.07
2018-11-03T23:08:24.465Z,21.03
2018-11-03T23:10:53.161Z,15.63
2018-11-03T23:13:21.946Z,14.67
2018-11-03T23:15:50.665Z,19.40
2018-11-03T23:18:19.420Z,12.87
2018-11-03T23:20:48.139Z,17.17
2018-11-03T23:23:17.129Z,18.33
2018-11-03T23:25:45.864Z,16.37
2018-11-03T23:28:14.749Z,15.63
2018-11-03T23:30:43.530Z,30.57
2018-11-03T23:33:12.363Z,15.83
2018-11-03T23:35:41.152Z,17.73
2018-11-03T23:38:10.245Z,14.20
2018-11-03T23:40:39.090Z,14.87
2018-11-03T23:43:07.879Z,14.47
2018-11-03T23:45:36.772Z,12.43
2018-11-03T23:48:06.382Z,13.10
2018-11-03T23:50:35.274Z,14.37
2018-11-03T23:53:04.272Z,14.63
2018-11-03T23:55:33.068Z,16.43
2018-11-03T23:58:01.947Z,13.57
